createdAt,value
2023-02-15T00:01:56.845Z,100.00
2023-02-15T00:04:00.916Z,100.00
2023-02-15T00:06:03.677Z,100.00
2023-02-15T00:08:06.463Z,100.00
2023-02-15T00:10:09.807Z,100.00
2023-02-15T00:12:12.529Z,100.00
2023-02-15T00:14:18.143Z,100.00
2023-02-15T00:16:20.742Z,100.00
2023-02-15T00:18:23.365Z,100.00
2023-02-15T00:20:27.400Z,100.00
2023-02-15T00:22:29.994Z,100.00
2023-02-15T00:24:32.670Z,100.00
2023-02-15T00:26:35.833Z,100.00
2023-02-15T00:28:38.794Z,100.00
2023-02-15T00:30:41.441Z,100.00
2023-02-15T00:32:44.090Z,100.00
2023-02-15T00:34:46.721Z,100.00
2023-02-15T00:36:51.083Z,100.00
2023-02-15T00:38:53.787Z,100.00
2023-02-15T00:40:57.077Z,100.00
2023-02-15T00:43:00.575Z,100.00
2023-02-15T00:45:03.232Z,100.00
2023-02-15T00:47:05.934Z,100.00
2023-02-15T00:49:08.798Z,100.00
2023-02-15T00:51:11.471Z,100.00
2023-02-15T00:53:15.429Z,100.00
2023-02-15T00:55:18.428Z,100.00
2023-02-15T00:57:21.247Z,100.00
2023-02-15T00:59:23.904Z,100.00
2023-02-15T01:01:26.787Z,100.00
2023-02-15T01:03:29.511Z,100.00
2023-02-15T01:05:32.334Z,100.00
2023-02-15T01:07:35.044Z,100.00
2023-02-15T01:09:39.112Z,100.00
2023-02-15T01:11:41.818Z,100.00
2023-02-15T01:13:44.453Z,100.00
2023-02-15T01:15:47.119Z,100.00
2023-02-15T01:17:53.601Z,100.00
2023-02-15T01:19:56.320Z,100.00
2023-02-15T01:21:58.949Z,100.00
2023-02-15T01:24:01.693Z,100.00
2023-02-15T01:26:05.871Z,100.00
2023-02-15T01:28:08.755Z,100.00
2023-02-15T01:30:12.556Z,100.00
2023-02-15T01:32:15.298Z,100.00
2023-02-15T01:34:17.959Z,100.00
2023-02-15T01:36:20.686Z,100.00
2023-02-15T01:38:23.376Z,100.00
2023-02-15T01:40:26.842Z,100.00
2023-02-15T01:42:32.797Z,100.00
2023-02-15T01:44:53.590Z,100.00
2023-02-15T01:46:56.332Z,100.00
2023-02-15T01:49:05.357Z,100.00
2023-02-15T01:51:08.488Z,100.00
2023-02-15T01:53:18.936Z,100.00
2023-02-15T01:55:24.255Z,100.00
2023-02-15T01:57:29.600Z,100.00
2023-02-15T01:59:36.170Z,100.00
2023-02-15T02:01:40.218Z,100.00
2023-02-15T02:03:51.869Z,100.00
2023-02-15T02:05:54.545Z,100.00
2023-02-15T02:08:00.300Z,100.00
2023-02-15T02:10:03.738Z,100.00
2023-02-15T02:12:07.598Z,100.00
2023-02-15T02:14:10.352Z,100.00
2023-02-15T02:16:19.086Z,100.00
2023-02-15T02:18:35.932Z,100.00
2023-02-15T02:21:00.116Z,100.00
2023-02-15T02:23:17.768Z,100.00
2023-02-15T02:25:54.802Z,100.00
2023-02-15T02:28:16.015Z,100.00
2023-02-15T02:30:42.398Z,100.00
2023-02-15T02:33:10.013Z,100.00
2023-02-15T02:35:18.616Z,100.00
2023-02-15T02:37:26.789Z,100.00
2023-02-15T02:39:37.462Z,100.00
2023-02-15T02:41:49.652Z,100.00
2023-02-15T02:43:57.101Z,100.00
2023-02-15T02:46:04.904Z,100.00
2023-02-15T02:48:14.306Z,100.00
2023-02-15T02:50:20.479Z,100.00
2023-02-15T02:52:48.167Z,100.00
2023-02-15T02:54:50.888Z,100.00
2023-02-15T02:56:55.222Z,100.00
2023-02-15T02:59:04.052Z,100.00
2023-02-15T03:01:11.040Z,100.00
2023-02-15T03:03:17.453Z,100.00
2023-02-15T03:05:24.100Z,100.00
2023-02-15T03:07:31.086Z,100.00
2023-02-15T03:09:45.375Z,100.00
2023-02-15T03:11:49.164Z,100.00
2023-02-15T03:13:52.128Z,100.00
2023-02-15T03:16:12.349Z,100.00
2023-02-15T03:18:18.925Z,100.00
2023-02-15T03:20:26.489Z,100.00
2023-02-15T03:22:33.367Z,100.00
2023-02-15T03:24:40.421Z,100.00
2023-02-15T03:26:45.228Z,100.00
2023-02-15T03:28:51.886Z,100.00
2023-02-15T03:30:57.825Z,100.00
2023-02-15T03:33:02.802Z,100.00
2023-02-15T03:35:07.928Z,100.00
2023-02-15T03:37:15.690Z,100.00
2023-02-15T03:39:22.843Z,100.00
2023-02-15T03:41:28.608Z,100.00
2023-02-15T03:43:39.723Z,100.00
2023-02-15T03:45:55.765Z,100.00
2023-02-15T03:48:02.182Z,100.00
2023-02-15T03:50:30.587Z,100.00
2023-02-15T03:52:35.131Z,100.00
2023-02-15T03:54:45.017Z,100.00
2023-02-15T03:57:07.993Z,100.00
2023-02-15T03:59:28.510Z,100.00
2023-02-15T04:01:59.002Z,100.00
2023-02-15T04:04:06.672Z,100.00
2023-02-15T04:06:10.702Z,100.00
2023-02-15T04:08:13.786Z,100.00
2023-02-15T04:10:34.360Z,100.00
2023-02-15T04:12:37.100Z,100.00
2023-02-15T04:14:57.137Z,100.00
2023-02-15T04:16:59.770Z,100.00
2023-02-15T04:19:19.794Z,100.00
2023-02-15T04:21:43.867Z,100.00
2023-02-15T04:24:04.151Z,100.00
2023-02-15T04:26:06.884Z,100.00
2023-02-15T04:28:09.502Z,100.00
2023-02-15T04:30:13.380Z,100.00
2023-02-15T04:32:16.246Z,100.00
2023-02-15T04:34:18.980Z,100.00
2023-02-15T04:36:23.043Z,100.00
2023-02-15T04:38:25.871Z,100.00
2023-02-15T04:40:28.579Z,100.00
2023-02-15T04:42:31.199Z,100.00
2023-02-15T04:44:33.870Z,100.00
2023-02-15T04:46:36.647Z,100.00
2023-02-15T04:48:39.315Z,100.00
2023-02-15T04:50:41.964Z,100.00
2023-02-15T04:52:46.685Z,100.00
2023-02-15T04:54:49.278Z,100.00
2023-02-15T04:56:51.879Z,100.00
2023-02-15T04:58:54.685Z,100.00
2023-02-15T05:00:57.958Z,100.00
2023-02-15T05:03:00.719Z,100.00
2023-02-15T05:05:03.363Z,100.00
2023-02-15T05:07:06.010Z,100.00
2023-02-15T05:09:09.954Z,100.00
2023-02-15T05:11:12.628Z,100.00
2023-02-15T05:13:15.345Z,100.00
2023-02-15T05:15:18.234Z,100.00
2023-02-15T05:17:20.917Z,100.00
2023-02-15T05:19:25.465Z,100.00
2023-02-15T05:21:28.384Z,100.00
2023-02-15T05:23:31.386Z,100.00
2023-02-15T05:25:52.865Z,100.00
2023-02-15T05:28:27.979Z,100.00
2023-02-15T05:30:30.825Z,100.00
2023-02-15T05:32:33.694Z,100.00
2023-02-15T05:34:36.503Z,100.00
2023-02-15T05:36:39.146Z,100.00
2023-02-15T05:38:42.100Z,100.00
2023-02-15T05:40:46.347Z,100.00
2023-02-15T05:42:49.629Z,100.00
2023-02-15T05:44:52.264Z,100.00
2023-02-15T05:46:54.980Z,100.00
2023-02-15T05:48:57.860Z,100.00
2023-02-15T05:51:01.547Z,100.00
2023-02-15T05:53:04.207Z,100.00
2023-02-15T05:55:09.688Z,100.00
2023-02-15T05:57:13.701Z,100.00
2023-02-15T05:59:16.596Z,100.00
2023-02-15T06:01:22.760Z,100.00
2023-02-15T06:03:29.398Z,100.00
2023-02-15T06:05:32.161Z,100.00
2023-02-15T06:07:35.102Z,100.00
2023-02-15T06:09:37.734Z,100.00
2023-02-15T06:11:40.494Z,100.00
2023-02-15T06:13:44.475Z,100.00
2023-02-15T06:15:47.245Z,100.00
2023-02-15T06:17:49.975Z,100.00
2023-02-15T06:19:52.653Z,100.00
2023-02-15T06:21:55.231Z,100.00
2023-02-15T06:23:58.048Z,100.00
2023-02-15T06:26:01.193Z,100.00
2023-02-15T06:28:04.022Z,100.00
2023-02-15T06:30:09.936Z,100.00
2023-02-15T06:32:12.732Z,100.00
2023-02-15T06:34:15.653Z,100.00
2023-02-15T06:36:18.393Z,100.00
2023-02-15T06:38:20.976Z,100.00
2023-02-15T06:40:23.817Z,100.00
2023-02-15T06:42:26.909Z,100.00
2023-02-15T06:44:29.737Z,100.00
2023-02-15T06:46:33.770Z,100.00
2023-02-15T06:48:36.493Z,100.00
2023-02-15T06:50:39.432Z,100.00
2023-02-15T06:52:42.025Z,100.00
2023-02-15T06:54:44.809Z,100.00
2023-02-15T06:56:47.501Z,100.00
2023-02-15T06:58:50.935Z,100.00
2023-02-15T07:00:53.696Z,100.00
2023-02-15T07:02:58.638Z,100.00
2023-02-15T07:05:01.445Z,100.00
2023-02-15T07:07:04.256Z,100.00
2023-02-15T07:09:07.175Z,100.00
2023-02-15T07:11:27.325Z,100.00
2023-02-15T07:13:29.965Z,100.00
2023-02-15T07:15:32.518Z,100.00
2023-02-15T07:17:36.498Z,100.00
2023-02-15T07:19:41.032Z,100.00
2023-02-15T07:21:44.955Z,100.00
2023-02-15T07:23:47.597Z,100.00
2023-02-15T07:25:50.369Z,100.00
2023-02-15T07:27:58.275Z,100.00
2023-02-15T07:30:02.112Z,100.00
2023-02-15T07:32:04.796Z,100.00
2023-02-15T07:34:08.431Z,100.00
2023-02-15T07:36:13.380Z,100.00
2023-02-15T07:38:16.093Z,100.00
2023-02-15T07:40:19.205Z,100.00
2023-02-15T07:42:22.907Z,100.00
2023-02-15T07:44:25.821Z,100.00
2023-02-15T07:46:28.885Z,100.00
2023-02-15T07:48:32.003Z,100.00
2023-02-15T07:50:34.660Z,100.00
2023-02-15T07:52:38.844Z,100.00
2023-02-15T07:54:41.519Z,100.00
2023-02-15T07:56:44.107Z,100.00
2023-02-15T07:58:52.566Z,100.00
2023-02-15T08:01:02.684Z,100.00
2023-02-15T08:03:17.463Z,100.00
2023-02-15T08:05:20.137Z,100.00
2023-02-15T08:07:22.720Z,100.00
2023-02-15T08:09:26.858Z,100.00
2023-02-15T08:11:33.484Z,100.00
2023-02-15T08:13:36.142Z,97.92
2023-02-15T08:15:38.823Z,96.63
2023-02-15T08:17:41.472Z,97.15
2023-02-15T08:19:44.145Z,96.31
2023-02-15T08:21:48.870Z,97.33
2023-02-15T08:23:51.520Z,95.68
2023-02-15T08:25:55.549Z,98.40
2023-02-15T08:27:58.153Z,93.30
2023-02-15T08:30:00.849Z,85.58
2023-02-15T08:32:05.986Z,88.63
2023-02-15T08:34:09.957Z,86.50
2023-02-15T08:36:14.778Z,82.01
2023-02-15T08:38:17.435Z,76.53
2023-02-15T08:40:20.113Z,77.45
2023-02-15T08:42:24.317Z,75.23
2023-02-15T08:44:27.125Z,72.60
2023-02-15T08:46:31.499Z,74.88
2023-02-15T08:48:34.463Z,68.96
2023-02-15T08:50:37.101Z,65.05
2023-02-15T08:52:39.728Z,68.54
2023-02-15T08:54:42.477Z,68.35
2023-02-15T08:56:46.110Z,72.89
2023-02-15T08:58:50.789Z,72.48
2023-02-15T09:00:53.641Z,75.86
2023-02-15T09:02:56.414Z,74.81
2023-02-15T09:04:59.052Z,61.53
2023-02-15T09:07:01.736Z,60.28
2023-02-15T09:09:04.623Z,57.19
2023-02-15T09:11:12.099Z,58.69
2023-02-15T09:13:15.150Z,58.86
2023-02-15T09:15:19.179Z,55.21
2023-02-15T09:17:21.868Z,49.55
2023-02-15T09:19:25.607Z,47.76
2023-02-15T09:21:28.548Z,53.00
2023-02-15T09:23:31.201Z,56.61
2023-02-15T09:25:33.766Z,55.72
2023-02-15T09:27:37.450Z,54.59
2023-02-15T09:29:40.123Z,55.02
2023-02-15T09:31:46.031Z,52.02
2023-02-15T09:33:50.064Z,53.81
2023-02-15T09:35:52.752Z,53.15
2023-02-15T09:37:55.445Z,52.80
2023-02-15T09:39:58.316Z,50.60
2023-02-15T09:42:34.120Z,50.12
2023-02-15T09:44:55.918Z,48.90
2023-02-15T09:47:14.661Z,52.75
2023-02-15T09:49:29.520Z,55.51
2023-02-15T09:51:51.032Z,53.68
2023-02-15T09:54:09.342Z,52.11
2023-02-15T09:56:21.210Z,46.80
2023-02-15T09:58:37.394Z,51.71
2023-02-15T10:00:47.966Z,52.47
2023-02-15T10:03:13.792Z,57.06
2023-02-15T10:05:27.340Z,51.80
2023-02-15T10:07:48.005Z,48.49
2023-02-15T10:10:05.204Z,55.83
2023-02-15T10:12:25.854Z,53.75
2023-02-15T10:14:52.440Z,56.50
2023-02-15T10:17:03.322Z,55.14
2023-02-15T10:19:18.625Z,54.99
2023-02-15T10:21:34.914Z,52.31
2023-02-15T10:24:10.151Z,60.79
2023-02-15T10:26:19.567Z,59.97
2023-02-15T10:28:28.785Z,57.67
2023-02-15T10:30:43.512Z,61.07
2023-02-15T10:32:56.522Z,64.85
2023-02-15T10:35:04.226Z,64.17
2023-02-15T10:37:28.764Z,65.25
2023-02-15T10:39:41.010Z,64.34
2023-02-15T10:41:49.885Z,68.15
2023-02-15T10:44:06.596Z,66.71
2023-02-15T10:46:17.141Z,64.07
2023-02-15T10:48:37.196Z,59.83
2023-02-15T10:50:49.469Z,59.56
2023-02-15T10:53:05.287Z,59.83
2023-02-15T10:55:16.757Z,61.99
2023-02-15T10:57:28.698Z,62.17
2023-02-15T11:00:00.775Z,61.88
2023-02-15T11:02:12.945Z,63.84
2023-02-15T11:04:42.195Z,64.33
2023-02-15T11:06:53.185Z,64.15
2023-02-15T11:09:01.770Z,64.58
2023-02-15T11:11:08.431Z,67.11
2023-02-15T11:13:15.527Z,64.83
2023-02-15T11:15:26.720Z,64.05
2023-02-15T11:17:39.559Z,63.68
2023-02-15T11:19:50.321Z,63.45
2023-02-15T11:21:57.770Z,62.44
2023-02-15T11:24:02.164Z,64.08
2023-02-15T11:26:08.429Z,63.17
2023-02-15T11:28:20.668Z,63.96
2023-02-15T11:30:26.297Z,65.89
2023-02-15T11:32:31.378Z,65.92
2023-02-15T11:34:37.833Z,64.99
2023-02-15T11:36:43.136Z,64.92
2023-02-15T11:38:51.654Z,64.83
2023-02-15T11:41:01.102Z,66.03
2023-02-15T11:43:08.454Z,64.93
2023-02-15T11:45:24.272Z,64.36
2023-02-15T11:47:27.297Z,64.71
2023-02-15T11:49:33.319Z,64.58
2023-02-15T11:51:37.469Z,64.64
2023-02-15T11:53:40.974Z,66.36
2023-02-15T11:55:46.472Z,64.03
2023-02-15T11:57:54.761Z,64.94
2023-02-15T12:00:05.165Z,65.62
2023-02-15T12:02:18.427Z,66.74
2023-02-15T12:04:27.170Z,66.51
2023-02-15T12:06:34.201Z,66.19
2023-02-15T12:08:43.902Z,65.44
2023-02-15T12:10:59.172Z,66.09
2023-02-15T12:13:12.900Z,66.52
2023-02-15T12:15:16.182Z,66.71
2023-02-15T12:17:20.085Z,65.99
2023-02-15T12:19:31.797Z,65.58
2023-02-15T12:21:41.723Z,66.05
2023-02-15T12:23:50.126Z,66.33
2023-02-15T12:25:59.247Z,66.04
2023-02-15T12:28:01.991Z,65.57
2023-02-15T12:30:08.331Z,65.23
2023-02-15T12:32:19.178Z,65.50
2023-02-15T12:34:26.270Z,65.41
2023-02-15T12:36:32.669Z,64.31
2023-02-15T12:38:36.786Z,64.79
2023-02-15T12:40:41.125Z,64.84
2023-02-15T12:42:46.641Z,64.40
2023-02-15T12:44:58.403Z,65.23
2023-02-15T12:47:04.629Z,65.22
2023-02-15T12:49:10.186Z,63.52
2023-02-15T12:51:17.629Z,62.89
2023-02-15T12:53:24.360Z,60.99
2023-02-15T12:55:30.787Z,62.40
2023-02-15T12:57:34.740Z,61.67
2023-02-15T12:59:39.541Z,60.25
2023-02-15T13:01:46.015Z,59.57
2023-02-15T13:04:00.918Z,60.49
2023-02-15T13:06:08.218Z,59.98
2023-02-15T13:08:15.780Z,59.44
2023-02-15T13:10:28.458Z,61.47
2023-02-15T13:12:34.607Z,60.41
2023-02-15T13:14:41.307Z,59.89
2023-02-15T13:16:46.702Z,60.28
2023-02-15T13:18:54.152Z,60.95
2023-02-15T13:20:58.061Z,58.59
2023-02-15T13:23:06.261Z,56.43
2023-02-15T13:25:15.184Z,56.94
2023-02-15T13:27:20.743Z,57.09
2023-02-15T13:29:26.704Z,56.95
2023-02-15T13:31:33.624Z,58.16
2023-02-15T13:33:39.180Z,57.58
2023-02-15T13:35:48.249Z,58.89
2023-02-15T13:38:08.625Z,58.46
2023-02-15T13:40:17.555Z,59.18
2023-02-15T13:42:24.555Z,58.53
2023-02-15T13:44:49.432Z,59.25
2023-02-15T13:47:06.824Z,59.26
2023-02-15T13:49:21.428Z,58.66
2023-02-15T13:51:33.344Z,58.58
2023-02-15T13:54:13.668Z,57.03
2023-02-15T13:56:25.692Z,57.88
2023-02-15T13:59:06.918Z,57.86
2023-02-15T14:01:15.811Z,56.95
2023-02-15T14:03:57.605Z,56.66
2023-02-15T14:06:37.069Z,57.29
2023-02-15T14:08:56.468Z,56.95
2023-02-15T14:11:05.198Z,58.87
2023-02-15T14:13:40.516Z,58.04
2023-02-15T14:15:49.010Z,58.46
2023-02-15T14:18:02.061Z,57.34
2023-02-15T14:20:18.625Z,57.22
2023-02-15T14:22:30.975Z,57.14
2023-02-15T14:24:44.225Z,57.18
2023-02-15T14:26:54.974Z,56.89
2023-02-15T14:29:06.842Z,56.50
2023-02-15T14:31:14.055Z,57.51
2023-02-15T14:33:34.645Z,57.00
2023-02-15T14:35:39.189Z,56.12
2023-02-15T14:37:48.542Z,56.18
2023-02-15T14:40:17.540Z,56.77
2023-02-15T14:42:27.562Z,56.43
2023-02-15T14:44:36.582Z,56.51
2023-02-15T14:46:43.831Z,56.07
2023-02-15T14:48:50.245Z,56.33
2023-02-15T14:50:54.522Z,55.76
2023-02-15T14:53:18.797Z,56.02
2023-02-15T14:55:37.042Z,55.68
2023-02-15T14:57:39.651Z,55.54
2023-02-15T14:59:46.116Z,56.66
2023-02-15T15:02:00.173Z,56.28
2023-02-15T15:04:08.464Z,55.77
2023-02-15T15:06:28.375Z,56.88
2023-02-15T15:08:36.380Z,57.12
2023-02-15T15:10:44.969Z,57.49
2023-02-15T15:12:49.105Z,57.84
2023-02-15T15:14:52.953Z,58.45
2023-02-15T15:16:55.666Z,59.51
2023-02-15T15:18:59.409Z,59.32
2023-02-15T15:21:02.357Z,59.70
2023-02-15T15:23:40.987Z,60.29
2023-02-15T15:25:46.870Z,60.51
2023-02-15T15:27:53.615Z,60.83
2023-02-15T15:29:56.286Z,60.31
2023-02-15T15:32:03.412Z,60.85
2023-02-15T15:35:01.707Z,60.33
2023-02-15T15:37:43.819Z,60.68
2023-02-15T15:40:20.873Z,60.52
2023-02-15T15:42:34.568Z,60.21
2023-02-15T15:45:30.729Z,60.99
2023-02-15T15:47:51.273Z,61.38
2023-02-15T15:49:58.691Z,61.52
2023-02-15T15:52:03.969Z,61.76
2023-02-15T15:54:06.715Z,61.95
2023-02-15T15:56:14.512Z,62.65
2023-02-15T15:58:21.185Z,63.11
2023-02-15T16:00:36.542Z,63.25
2023-02-15T16:02:51.940Z,63.88
2023-02-15T16:04:54.605Z,65.08
2023-02-15T16:06:57.940Z,64.80
2023-02-15T16:09:12.394Z,65.45
2023-02-15T16:11:20.118Z,65.28
2023-02-15T16:13:24.556Z,66.37
2023-02-15T16:15:32.949Z,66.36
2023-02-15T16:17:35.644Z,66.35
2023-02-15T16:19:41.830Z,66.21
2023-02-15T16:21:44.628Z,66.29
2023-02-15T16:24:08.866Z,65.86
2023-02-15T16:26:20.208Z,66.90
2023-02-15T16:28:24.318Z,67.42
2023-02-15T16:30:32.162Z,67.36
2023-02-15T16:32:37.319Z,67.71
2023-02-15T16:34:40.059Z,68.00
2023-02-15T16:36:42.788Z,67.44
2023-02-15T16:39:10.547Z,68.75
2023-02-15T16:41:17.460Z,68.61
2023-02-15T16:43:26.768Z,68.08
2023-02-15T16:45:31.683Z,68.33
2023-02-15T16:47:38.264Z,68.70
2023-02-15T16:49:47.760Z,68.54
2023-02-15T16:51:58.654Z,66.11
2023-02-15T16:54:07.943Z,65.28
2023-02-15T16:56:11.832Z,64.13
2023-02-15T16:58:18.167Z,62.96
2023-02-15T17:00:26.993Z,64.33
2023-02-15T17:02:54.446Z,65.63
2023-02-15T17:05:16.633Z,64.39
2023-02-15T17:07:21.053Z,64.78
2023-02-15T17:09:26.436Z,65.51
2023-02-15T17:11:36.557Z,64.78
2023-02-15T17:13:39.725Z,64.27
2023-02-15T17:15:45.566Z,62.59
2023-02-15T17:17:48.503Z,61.84
2023-02-15T17:19:55.220Z,62.39
2023-02-15T17:21:58.751Z,61.58
2023-02-15T17:24:05.123Z,63.62
2023-02-15T17:26:16.391Z,62.71
2023-02-15T17:28:21.580Z,62.60
2023-02-15T17:30:29.931Z,61.45
2023-02-15T17:32:37.180Z,61.38
2023-02-15T17:34:46.712Z,62.58
2023-02-15T17:36:59.514Z,65.49
2023-02-15T17:39:07.194Z,66.35
2023-02-15T17:41:10.698Z,66.17
2023-02-15T17:43:13.331Z,63.83
2023-02-15T17:45:16.336Z,65.77
2023-02-15T17:47:21.338Z,64.67
2023-02-15T17:49:29.335Z,65.03
2023-02-15T17:51:33.142Z,67.06
2023-02-15T17:53:36.777Z,67.48
2023-02-15T17:55:42.947Z,68.54
2023-02-15T17:57:45.541Z,67.96
2023-02-15T18:00:05.961Z,68.58
2023-02-15T18:02:30.313Z,70.23
2023-02-15T18:04:54.923Z,66.92
2023-02-15T18:07:15.109Z,69.58
2023-02-15T18:09:39.103Z,67.14
2023-02-15T18:11:42.459Z,70.05
2023-02-15T18:13:45.165Z,69.27
2023-02-15T18:15:47.737Z,65.27
2023-02-15T18:17:50.475Z,65.05
2023-02-15T18:19:55.222Z,65.23
2023-02-15T18:21:58.043Z,65.05
2023-02-15T18:24:01.193Z,64.01
2023-02-15T18:26:04.324Z,64.78
2023-02-15T18:28:07.434Z,65.08
2023-02-15T18:30:15.840Z,64.73
2023-02-15T18:32:22.912Z,65.15
2023-02-15T18:34:29.796Z,64.10
2023-02-15T18:36:34.680Z,63.66
2023-02-15T18:38:37.350Z,64.06
2023-02-15T18:40:39.992Z,64.01
2023-02-15T18:42:47.083Z,64.40
2023-02-15T18:44:49.835Z,64.33
2023-02-15T18:46:52.472Z,64.91
2023-02-15T18:48:55.116Z,65.06
2023-02-15T18:50:57.848Z,64.34
2023-02-15T18:53:04.295Z,63.91
2023-02-15T18:55:17.560Z,62.82
2023-02-15T18:57:20.366Z,62.46
2023-02-15T18:59:23.636Z,62.82
2023-02-15T19:01:26.957Z,61.62
2023-02-15T19:03:29.793Z,62.43
2023-02-15T19:05:33.849Z,63.26
2023-02-15T19:07:37.955Z,62.77
2023-02-15T19:09:42.577Z,64.08
2023-02-15T19:11:50.466Z,65.34
2023-02-15T19:13:53.777Z,64.74
2023-02-15T19:15:57.029Z,64.78
2023-02-15T19:17:59.677Z,65.05
2023-02-15T19:20:02.357Z,66.25
2023-02-15T19:22:05.492Z,66.40
2023-02-15T19:24:13.463Z,66.91
2023-02-15T19:26:17.384Z,67.83
2023-02-15T19:28:26.056Z,67.05
2023-02-15T19:30:30.881Z,66.87
2023-02-15T19:32:33.673Z,67.18
2023-02-15T19:34:36.485Z,67.06
2023-02-15T19:36:39.268Z,66.79
2023-02-15T19:38:42.777Z,67.04
2023-02-15T19:40:46.046Z,67.13
2023-02-15T19:42:50.727Z,67.09
2023-02-15T19:44:54.583Z,66.86
2023-02-15T19:46:57.758Z,67.18
2023-02-15T19:49:00.324Z,66.66
2023-02-15T19:51:03.673Z,66.24
2023-02-15T19:53:06.644Z,66.22
2023-02-15T19:55:21.483Z,66.76
2023-02-15T19:57:24.997Z,66.62
2023-02-15T19:59:30.702Z,67.04
2023-02-15T20:01:33.501Z,66.96
2023-02-15T20:03:36.786Z,67.09
2023-02-15T20:05:40.120Z,67.85
2023-02-15T20:07:45.696Z,67.30
2023-02-15T20:09:48.445Z,68.14
2023-02-15T20:11:51.766Z,68.27
2023-02-15T20:13:54.551Z,68.46
2023-02-15T20:16:01.039Z,68.07
2023-02-15T20:18:05.048Z,68.07
2023-02-15T20:20:09.146Z,68.56
2023-02-15T20:22:22.369Z,69.21
2023-02-15T20:24:28.650Z,69.57
2023-02-15T20:26:32.533Z,70.63
2023-02-15T20:28:35.150Z,71.84
2023-02-15T20:30:37.857Z,72.56
2023-02-15T20:32:41.850Z,73.21
2023-02-15T20:34:44.478Z,73.21
2023-02-15T20:36:47.121Z,74.31
2023-02-15T20:38:50.092Z,74.69
2023-02-15T20:41:11.364Z,74.85
2023-02-15T20:43:16.094Z,75.73
2023-02-15T20:45:22.039Z,76.30
2023-02-15T20:47:26.820Z,76.55
2023-02-15T20:49:31.701Z,76.17
2023-02-15T20:51:34.421Z,77.29
2023-02-15T20:53:37.109Z,77.81
2023-02-15T20:55:39.876Z,78.49
2023-02-15T20:57:42.559Z,78.31
2023-02-15T20:59:45.210Z,79.06
2023-02-15T21:01:48.163Z,79.74
2023-02-15T21:03:53.981Z,81.27
2023-02-15T21:06:00.625Z,81.90
2023-02-15T21:08:03.405Z,82.01
2023-02-15T21:10:07.382Z,81.80
2023-02-15T21:12:13.476Z,81.71
2023-02-15T21:14:20.397Z,81.66
2023-02-15T21:16:23.112Z,83.44
2023-02-15T21:18:27.930Z,83.80
2023-02-15T21:20:33.595Z,83.84
2023-02-15T21:22:40.135Z,83.93
2023-02-15T21:24:49.127Z,84.11
2023-02-15T21:26:52.084Z,84.22
2023-02-15T21:28:55.118Z,84.66
2023-02-15T21:30:59.316Z,84.94
2023-02-15T21:33:02.219Z,85.71
2023-02-15T21:35:05.477Z,86.21
2023-02-15T21:37:27.463Z,86.61
2023-02-15T21:39:36.683Z,86.69
2023-02-15T21:41:56.046Z,86.72
2023-02-15T21:44:16.513Z,86.68
2023-02-15T21:46:38.567Z,86.62
2023-02-15T21:48:41.319Z,86.90
2023-02-15T21:51:02.183Z,87.60
2023-02-15T21:53:06.377Z,87.46
2023-02-15T21:55:14.769Z,88.03
2023-02-15T21:57:21.055Z,87.86
2023-02-15T21:59:24.665Z,88.50
2023-02-15T22:01:28.929Z,89.25
2023-02-15T22:03:34.152Z,90.00
2023-02-15T22:05:36.793Z,90.56
2023-02-15T22:07:39.505Z,90.30
2023-02-15T22:09:42.094Z,90.15
2023-02-15T22:11:46.371Z,89.79
2023-02-15T22:13:50.187Z,91.15
2023-02-15T22:15:52.922Z,91.61
2023-02-15T22:17:55.953Z,91.88
2023-02-15T22:19:59.160Z,91.39
2023-02-15T22:22:01.774Z,91.37
2023-02-15T22:24:04.723Z,92.02
2023-02-15T22:26:09.315Z,91.18
2023-02-15T22:28:16.575Z,90.30
2023-02-15T22:30:25.369Z,89.94
2023-02-15T22:32:28.386Z,90.14
2023-02-15T22:34:33.327Z,90.32
2023-02-15T22:36:35.968Z,91.21
2023-02-15T22:38:38.603Z,90.85
2023-02-15T22:40:41.569Z,90.79
2023-02-15T22:42:47.343Z,90.37
2023-02-15T22:44:51.642Z,89.93
2023-02-15T22:46:54.534Z,89.17
2023-02-15T22:48:57.150Z,89.27
2023-02-15T22:50:59.799Z,90.36
2023-02-15T22:53:03.604Z,89.80
2023-02-15T22:55:07.053Z,86.11
2023-02-15T22:57:16.885Z,83.12
2023-02-15T22:59:23.740Z,83.56
2023-02-15T23:01:32.588Z,82.56
2023-02-15T23:03:35.229Z,81.70
2023-02-15T23:05:37.991Z,81.35
2023-02-15T23:07:40.812Z,80.47
2023-02-15T23:09:43.781Z,80.60
2023-02-15T23:11:46.899Z,80.43
2023-02-15T23:13:50.282Z,81.09
2023-02-15T23:15:56.481Z,80.73
2023-02-15T23:18:05.845Z,80.29
2023-02-15T23:20:14.598Z,81.17
2023-02-15T23:22:18.411Z,81.24
2023-02-15T23:24:23.477Z,81.97
2023-02-15T23:26:28.658Z,82.01
2023-02-15T23:28:34.672Z,80.62
2023-02-15T23:30:37.389Z,79.40
2023-02-15T23:32:40.348Z,81.01
2023-02-15T23:34:44.832Z,81.06
2023-02-15T23:36:48.179Z,81.41
2023-02-15T23:38:50.893Z,81.28
2023-02-15T23:41:17.358Z,81.35
2023-02-15T23:43:22.958Z,81.17
2023-02-15T23:45:26.526Z,81.83
2023-02-15T23:47:44.746Z,81.77
2023-02-15T23:49:48.883Z,82.79
2023-02-15T23:51:53.500Z,83.80
2023-02-15T23:53:56.321Z,83.75
2023-02-15T23:55:59.710Z,84.14
2023-02-15T23:58:03.071Z,84.12
